This is the latest recevied weather packets stored in our database for station/object KC1TEM-13. If no packets are shown the sender has not sent any weather packets the latest 10 day(s).
| Time | Temp. | Humidity | Pressure | Rain* | Wind** | Luminosity | Snow |
|---|---|---|---|---|---|---|---|
| 1777892286 | 7.78° C | 57% | 1010.7 hPa | 0 mm | - | 36 W/m² | - |
| 1777891681 | 7.78° C | 58% | 1010.4 hPa | 0 mm | - | 27 W/m² | - |
| 1777891072 | 7.22° C | 58% | 1010.5 hPa | 0 mm | - | 22 W/m² | - |
| 1777890767 | 7.22° C | 59% | 1010.5 hPa | 0 mm | - | 29 W/m² | - |
| 1777889856 | 6.67° C | 60% | 1010.6 hPa | 0 mm | - | 21 W/m² | - |
| 1777889553 | 6.67° C | 61% | 1010.5 hPa | 0 mm | - | 20 W/m² | - |
| 1777889251 | 6.67° C | 62% | 1010.6 hPa | 0 mm | - | 17 W/m² | - |
| 1777888948 | 6.11° C | 64% | 1010.7 hPa | 0 mm | - | 12 W/m² | - |
| 1777888341 | 5° C | 76% | 1010.6 hPa | 0 mm | - | 5 W/m² | - |
| 1777887432 | 5° C | 78% | 1010.3 hPa | 0 mm | - | 2 W/m² | - |
| 1777887127 | 5° C | 72% | 1010.4 hPa | 0 mm | - | 1 W/m² | - |
| 1777886823 | 5° C | 71% | 1010.2 hPa | 0 mm | - | 0 W/m² | - |
| 1777886519 | 5.56° C | 69% | 1010.3 hPa | 0 mm | - | 0 W/m² | - |
| 1777886217 | 5.56° C | 65% | 1010.3 hPa | 0 mm | - | 0 W/m² | - |
| 1777885915 | 5.56° C | 64% | 1010.3 hPa | 0 mm | - | 0 W/m² | - |
| 1777885613 | 6.11° C | 63% | 1010.3 hPa | 0 mm | - | 0 W/m² | - |
| 1777885311 | 6.11° C | 62% | 1010.2 hPa | 0 mm | - | 0 W/m² | - |
| 1777885009 | 6.11° C | 61% | 1010.4 hPa | 0 mm | - | 0 W/m² | - |
| 1777884704 | 6.11° C | 61% | 1010.2 hPa | 0 mm | - | 0 W/m² | - |
| 1777884098 | 6.11° C | 62% | 1010.5 hPa | 0 mm | - | 0 W/m² | - |
| 1777883795 | 6.11° C | 65% | 1010.4 hPa | 0 mm | - | 0 W/m² | - |
| 1777883492 | 6.11° C | 63% | 1010.4 hPa | 0 mm | - | 0 W/m² | - |
| 1777883188 | 6.11° C | 62% | 1010.4 hPa | 0 mm | - | 0 W/m² | - |
| 1777882884 | 6.11° C | 67% | 1010.4 hPa | 0 mm | - | 0 W/m² | - |
| 1777882582 | 5.56° C | 74% | 1010.3 hPa | 0 mm | - | 0 W/m² | - |
* Rain latest hour (hover to see other rain measurements)
** Current wind speed in m/s (hover to see current wind gust speed)